createdAt,value
2019-02-09T00:06:59.343Z,5.66
2019-02-09T00:35:36.823Z,5.43
2019-02-09T01:04:14.993Z,5.26
2019-02-09T01:32:45.236Z,4.97
2019-02-09T02:01:29.087Z,5.76
2019-02-09T02:30:07.479Z,6.12
2019-02-09T02:58:43.545Z,5.9
2019-02-09T03:27:21.079Z,5.7
2019-02-09T03:55:58.858Z,5.81
2019-02-09T04:24:38.127Z,5.71
2019-02-09T04:53:12.541Z,5.47
2019-02-09T05:21:44.798Z,5.21
2019-02-09T05:50:20.454Z,5.36
2019-02-09T06:19:01.805Z,5.9
2019-02-09T06:47:34.872Z,5.67
2019-02-09T07:16:11.991Z,5.75
2019-02-09T07:44:52.764Z,6.77
2019-02-09T08:13:34.742Z,7.32
2019-02-09T08:42:19.257Z,8.16
2019-02-09T09:10:57.515Z,8.38
2019-02-09T09:39:36.879Z,9.17
2019-02-09T10:08:19.435Z,9.57
2019-02-09T10:37:01.024Z,9.94
2019-02-09T11:05:42.118Z,10.24
2019-02-09T11:34:24.363Z,10.43
2019-02-09T12:03:13.813Z,10.43
2019-02-09T12:31:24.317Z,10.53
2019-02-09T13:00:01.750Z,10.38
2019-02-09T13:28:38.697Z,10.03
2019-02-09T13:57:14.956Z,10.1
2019-02-09T14:25:53.700Z,9.95
2019-02-09T14:54:32.536Z,9.37
2019-02-09T15:23:08.150Z,9.23
2019-02-09T15:51:46.583Z,8.81
2019-02-09T16:20:23.224Z,8.36
2019-02-09T16:48:59.950Z,7.9
2019-02-09T17:17:36.894Z,7.74
2019-02-09T17:46:14.018Z,7.6
2019-02-09T18:14:50.049Z,7.35
2019-02-09T18:43:30.078Z,7.34
2019-02-09T19:12:06.928Z,6.98
2019-02-09T19:40:42.726Z,6.43
2019-02-09T20:09:23.990Z,6.51
2019-02-09T20:38:01.250Z,6.02
2019-02-09T21:06:40.603Z,5.91
2019-02-09T21:35:21.752Z,6.57
2019-02-09T22:04:02.871Z,6.83
2019-02-09T22:32:43.154Z,6.83
2019-02-09T23:01:20.350Z,6.45
2019-02-09T23:29:59.341Z,5.94
2019-02-09T23:58:35.229Z,5.94
